sensor_id;sensor_type;location;lat;lon;timestamp;temperature;humidity
70170;DHT22;57543;45.442;9.212;2022-08-25T00:00:11;27.33;50.81
70170;DHT22;57543;45.442;9.212;2022-08-25T00:03:15;27.39;50.69
70170;DHT22;57543;45.442;9.212;2022-08-25T00:06:19;27.39;50.53
70170;DHT22;57543;45.442;9.212;2022-08-25T00:09:25;27.37;50.68
70170;DHT22;57543;45.442;9.212;2022-08-25T00:12:30;27.34;50.64
70170;DHT22;57543;45.442;9.212;2022-08-25T00:15:33;27.34;50.63
70170;DHT22;57543;45.442;9.212;2022-08-25T00:18:38;27.35;50.51
70170;DHT22;57543;45.442;9.212;2022-08-25T00:21:43;27.35;50.46
70170;DHT22;57543;45.442;9.212;2022-08-25T00:24:47;27.31;50.65
70170;DHT22;57543;45.442;9.212;2022-08-25T00:27:51;27.28;50.56
70170;DHT22;57543;45.442;9.212;2022-08-25T00:30:55;27.33;50.60
70170;DHT22;57543;45.442;9.212;2022-08-25T00:33:59;27.33;50.54
70170;DHT22;57543;45.442;9.212;2022-08-25T00:37:05;27.27;50.74
70170;DHT22;57543;45.442;9.212;2022-08-25T00:40:12;27.21;50.86
70170;DHT22;57543;45.442;9.212;2022-08-25T00:43:16;27.21;50.76
70170;DHT22;57543;45.442;9.212;2022-08-25T00:46:24;27.25;50.72
70170;DHT22;57543;45.442;9.212;2022-08-25T00:53:07;27.15;51.00
70170;DHT22;57543;45.442;9.212;2022-08-25T00:56:11;27.14;51.05
70170;DHT22;57543;45.442;9.212;2022-08-25T00:59:19;27.15;50.99
70170;DHT22;57543;45.442;9.212;2022-08-25T01:02:24;27.11;50.99
70170;DHT22;57543;45.442;9.212;2022-08-25T01:05:28;27.12;51.04
70170;DHT22;57543;45.442;9.212;2022-08-25T01:08:32;27.12;51.02
70170;DHT22;57543;45.442;9.212;2022-08-25T01:11:36;27.10;50.94
70170;DHT22;57543;45.442;9.212;2022-08-25T01:14:41;27.10;50.83
70170;DHT22;57543;45.442;9.212;2022-08-25T01:17:50;27.08;50.86
70170;DHT22;57543;45.442;9.212;2022-08-25T01:20:56;27.07;50.99
70170;DHT22;57543;45.442;9.212;2022-08-25T01:24:00;27.07;51.09
70170;DHT22;57543;45.442;9.212;2022-08-25T01:27:04;27.07;51.01
70170;DHT22;57543;45.442;9.212;2022-08-25T01:30:09;27.03;51.10
70170;DHT22;57543;45.442;9.212;2022-08-25T01:33:13;27.06;51.14
70170;DHT22;57543;45.442;9.212;2022-08-25T01:36:18;27.00;51.13
70170;DHT22;57543;45.442;9.212;2022-08-25T01:39:23;27.00;51.21
70170;DHT22;57543;45.442;9.212;2022-08-25T01:42:52;26.96;51.29
70170;DHT22;57543;45.442;9.212;2022-08-25T01:45:56;26.91;51.38
70170;DHT22;57543;45.442;9.212;2022-08-25T01:49:01;26.97;51.39
70170;DHT22;57543;45.442;9.212;2022-08-25T01:52:23;26.91;51.40
70170;DHT22;57543;45.442;9.212;2022-08-25T01:55:28;26.90;51.43
70170;DHT22;57543;45.442;9.212;2022-08-25T01:58:34;26.89;51.54
70170;DHT22;57543;45.442;9.212;2022-08-25T02:01:38;26.82;51.58
70170;DHT22;57543;45.442;9.212;2022-08-25T02:04:41;26.84;51.50
70170;DHT22;57543;45.442;9.212;2022-08-25T02:07:45;26.80;51.57
70170;DHT22;57543;45.442;9.212;2022-08-25T02:10:50;26.82;51.53
70170;DHT22;57543;45.442;9.212;2022-08-25T02:13:54;26.79;51.66
70170;DHT22;57543;45.442;9.212;2022-08-25T02:16:59;26.79;51.57
70170;DHT22;57543;45.442;9.212;2022-08-25T02:20:06;26.80;51.57
70170;DHT22;57543;45.442;9.212;2022-08-25T02:23:12;26.80;51.55
70170;DHT22;57543;45.442;9.212;2022-08-25T02:26:16;26.76;51.50
70170;DHT22;57543;45.442;9.212;2022-08-25T02:29:21;26.72;51.71
70170;DHT22;57543;45.442;9.212;2022-08-25T02:32:26;26.73;51.62
70170;DHT22;57543;45.442;9.212;2022-08-25T02:35:30;26.73;51.52
70170;DHT22;57543;45.442;9.212;2022-08-25T02:38:35;26.73;51.66
70170;DHT22;57543;45.442;9.212;2022-08-25T02:41:39;26.68;51.76
70170;DHT22;57543;45.442;9.212;2022-08-25T02:44:43;26.68;51.80
70170;DHT22;57543;45.442;9.212;2022-08-25T02:47:47;26.68;51.81
70170;DHT22;57543;45.442;9.212;2022-08-25T02:50:51;26.57;51.87
70170;DHT22;57543;45.442;9.212;2022-08-25T02:53:56;26.52;52.12
70170;DHT22;57543;45.442;9.212;2022-08-25T02:57:00;26.46;52.17
70170;DHT22;57543;45.442;9.212;2022-08-25T03:00:04;26.48;52.19
70170;DHT22;57543;45.442;9.212;2022-08-25T03:03:08;26.49;52.09
70170;DHT22;57543;45.442;9.212;2022-08-25T03:06:16;26.52;52.03
70170;DHT22;57543;45.442;9.212;2022-08-25T03:09:19;26.55;51.83
70170;DHT22;57543;45.442;9.212;2022-08-25T03:12:23;26.51;51.96
70170;DHT22;57543;45.442;9.212;2022-08-25T03:15:27;26.51;51.95
70170;DHT22;57543;45.442;9.212;2022-08-25T03:18:31;26.53;51.94
70170;DHT22;57543;45.442;9.212;2022-08-25T03:21:36;26.46;52.06
70170;DHT22;57543;45.442;9.212;2022-08-25T03:24:40;26.25;52.71
70170;DHT22;57543;45.442;9.212;2022-08-25T03:27:44;26.22;52.58
70170;DHT22;57543;45.442;9.212;2022-08-25T03:30:48;26.31;52.29
70170;DHT22;57543;45.442;9.212;2022-08-25T03:33:52;26.29;52.36
70170;DHT22;57543;45.442;9.212;2022-08-25T03:36:56;26.24;52.46
70170;DHT22;57543;45.442;9.212;2022-08-25T03:40:02;26.24;52.53
70170;DHT22;57543;45.442;9.212;2022-08-25T03:43:07;26.20;52.65
70170;DHT22;57543;45.442;9.212;2022-08-25T03:46:22;26.16;52.59
70170;DHT22;57543;45.442;9.212;2022-08-25T03:49:26;26.16;52.71
70170;DHT22;57543;45.442;9.212;2022-08-25T03:52:29;26.21;52.59
70170;DHT22;57543;45.442;9.212;2022-08-25T03:55:33;26.25;52.47
70170;DHT22;57543;45.442;9.212;2022-08-25T03:58:38;26.21;52.46
70170;DHT22;57543;45.442;9.212;2022-08-25T04:01:43;26.17;52.44
70170;DHT22;57543;45.442;9.212;2022-08-25T04:04:48;26.08;52.69
70170;DHT22;57543;45.442;9.212;2022-08-25T04:07:53;26.00;52.87
70170;DHT22;57543;45.442;9.212;2022-08-25T04:10:56;25.96;53.16
70170;DHT22;57543;45.442;9.212;2022-08-25T04:14:00;25.93;53.08
70170;DHT22;57543;45.442;9.212;2022-08-25T04:17:04;25.90;53.30
70170;DHT22;57543;45.442;9.212;2022-08-25T04:20:10;25.93;53.31
70170;DHT22;57543;45.442;9.212;2022-08-25T04:23:13;25.86;53.63
70170;DHT22;57543;45.442;9.212;2022-08-25T04:26:21;25.84;53.48
70170;DHT22;57543;45.442;9.212;2022-08-25T04:29:25;25.89;53.40
70170;DHT22;57543;45.442;9.212;2022-08-25T04:32:29;25.86;53.42
70170;DHT22;57543;45.442;9.212;2022-08-25T04:35:34;25.77;53.66
70170;DHT22;57543;45.442;9.212;2022-08-25T04:38:40;25.75;53.66
70170;DHT22;57543;45.442;9.212;2022-08-25T04:41:43;25.76;53.83
70170;DHT22;57543;45.442;9.212;2022-08-25T04:44:47;25.72;53.88
70170;DHT22;57543;45.442;9.212;2022-08-25T04:47:52;25.82;53.79
70170;DHT22;57543;45.442;9.212;2022-08-25T04:50:56;25.65;54.38
70170;DHT22;57543;45.442;9.212;2022-08-25T04:54:03;25.77;54.09
70170;DHT22;57543;45.442;9.212;2022-08-25T04:57:07;25.72;54.16
70170;DHT22;57543;45.442;9.212;2022-08-25T05:00:12;25.76;54.15
70170;DHT22;57543;45.442;9.212;2022-08-25T05:03:15;25.72;54.30
70170;DHT22;57543;45.442;9.212;2022-08-25T05:06:19;25.75;54.33
70170;DHT22;57543;45.442;9.212;2022-08-25T05:09:24;25.82;54.19
70170;DHT22;57543;45.442;9.212;2022-08-25T05:12:27;25.84;54.15
70170;DHT22;57543;45.442;9.212;2022-08-25T05:15:31;25.82;54.59
70170;DHT22;57543;45.442;9.212;2022-08-25T05:18:54;25.87;54.30
70170;DHT22;57543;45.442;9.212;2022-08-25T05:21:58;25.89;54.04
70170;DHT22;57543;45.442;9.212;2022-08-25T05:25:01;25.96;54.20
70170;DHT22;57543;45.442;9.212;2022-08-25T05:28:05;26.03;54.24
70170;DHT22;57543;45.442;9.212;2022-08-25T05:31:11;25.79;55.21
70170;DHT22;57543;45.442;9.212;2022-08-25T05:34:14;25.58;55.75
70170;DHT22;57543;45.442;9.212;2022-08-25T05:37:19;25.61;55.71
70170;DHT22;57543;45.442;9.212;2022-08-25T05:40:23;25.61;55.89
70170;DHT22;57543;45.442;9.212;2022-08-25T05:43:27;25.59;55.92
70170;DHT22;57543;45.442;9.212;2022-08-25T05:46:31;25.67;55.72
70170;DHT22;57543;45.442;9.212;2022-08-25T05:49:35;25.69;55.71
70170;DHT22;57543;45.442;9.212;2022-08-25T05:52:39;25.63;56.09
70170;DHT22;57543;45.442;9.212;2022-08-25T05:55:44;25.62;56.48
70170;DHT22;57543;45.442;9.212;2022-08-25T05:58:47;25.65;56.48
70170;DHT22;57543;45.442;9.212;2022-08-25T06:01:51;25.73;56.54
70170;DHT22;57543;45.442;9.212;2022-08-25T06:05:23;25.67;56.88
70170;DHT22;57543;45.442;9.212;2022-08-25T06:08:27;25.65;56.83
70170;DHT22;57543;45.442;9.212;2022-08-25T06:11:36;25.61;56.66
70170;DHT22;57543;45.442;9.212;2022-08-25T06:14:42;25.29;57.74
70170;DHT22;57543;45.442;9.212;2022-08-25T06:17:46;24.77;59.68
70170;DHT22;57543;45.442;9.212;2022-08-25T06:20:50;24.29;61.01
70170;DHT22;57543;45.442;9.212;2022-08-25T06:23:54;24.29;60.66
70170;DHT22;57543;45.442;9.212;2022-08-25T06:26:58;23.98;61.76
70170;DHT22;57543;45.442;9.212;2022-08-25T06:30:04;24.20;60.92
70170;DHT22;57543;45.442;9.212;2022-08-25T06:33:08;24.15;61.14
70170;DHT22;57543;45.442;9.212;2022-08-25T06:36:11;24.08;61.41
70170;DHT22;57543;45.442;9.212;2022-08-25T06:39:16;24.21;60.87
70170;DHT22;57543;45.442;9.212;2022-08-25T06:42:19;24.42;60.60
70170;DHT22;57543;45.442;9.212;2022-08-25T06:45:43;24.65;60.07
70170;DHT22;57543;45.442;9.212;2022-08-25T06:48:48;24.63;60.33
70170;DHT22;57543;45.442;9.212;2022-08-25T06:51:52;24.93;59.45
70170;DHT22;57543;45.442;9.212;2022-08-25T06:55:15;25.10;58.40
70170;DHT22;57543;45.442;9.212;2022-08-25T06:58:19;25.41;57.49
70170;DHT22;57543;45.442;9.212;2022-08-25T07:01:24;25.53;57.57
70170;DHT22;57543;45.442;9.212;2022-08-25T07:04:29;25.63;57.72
70170;DHT22;57543;45.442;9.212;2022-08-25T07:07:33;25.86;57.20
70170;DHT22;57543;45.442;9.212;2022-08-25T07:10:37;26.01;56.63
70170;DHT22;57543;45.442;9.212;2022-08-25T07:13:41;26.05;56.60
70170;DHT22;57543;45.442;9.212;2022-08-25T07:16:45;26.28;56.35
70170;DHT22;57543;45.442;9.212;2022-08-25T07:19:49;26.35;55.88
70170;DHT22;57543;45.442;9.212;2022-08-25T07:22:52;26.35;55.54
70170;DHT22;57543;45.442;9.212;2022-08-25T07:25:56;26.18;55.40
70170;DHT22;57543;45.442;9.212;2022-08-25T07:29:00;26.13;55.75
70170;DHT22;57543;45.442;9.212;2022-08-25T07:32:04;26.27;55.63
70170;DHT22;57543;45.442;9.212;2022-08-25T07:35:09;26.38;55.75
70170;DHT22;57543;45.442;9.212;2022-08-25T07:38:19;26.44;54.31
70170;DHT22;57543;45.442;9.212;2022-08-25T07:41:24;26.45;54.85
70170;DHT22;57543;45.442;9.212;2022-08-25T07:44:28;26.57;55.31
70170;DHT22;57543;45.442;9.212;2022-08-25T07:47:32;26.66;53.81
70170;DHT22;57543;45.442;9.212;2022-08-25T07:50:39;26.93;54.05
70170;DHT22;57543;45.442;9.212;2022-08-25T07:53:44;27.20;53.67
70170;DHT22;57543;45.442;9.212;2022-08-25T07:56:48;27.51;52.63
70170;DHT22;57543;45.442;9.212;2022-08-25T07:59:51;27.72;51.17
70170;DHT22;57543;45.442;9.212;2022-08-25T08:02:55;27.90;50.22
70170;DHT22;57543;45.442;9.212;2022-08-25T08:06:00;28.17;50.15
70170;DHT22;57543;45.442;9.212;2022-08-25T08:09:11;28.18;50.62
70170;DHT22;57543;45.442;9.212;2022-08-25T08:12:14;28.18;50.84
70170;DHT22;57543;45.442;9.212;2022-08-25T08:15:19;28.15;50.24
70170;DHT22;57543;45.442;9.212;2022-08-25T08:18:23;28.37;50.91
70170;DHT22;57543;45.442;9.212;2022-08-25T08:21:30;28.47;50.70
70170;DHT22;57543;45.442;9.212;2022-08-25T08:24:34;28.77;50.30
70170;DHT22;57543;45.442;9.212;2022-08-25T08:27:41;28.97;48.84
70170;DHT22;57543;45.442;9.212;2022-08-25T08:30:45;29.04;49.00
70170;DHT22;57543;45.442;9.212;2022-08-25T08:33:49;28.96;47.70
70170;DHT22;57543;45.442;9.212;2022-08-25T08:36:53;29.30;47.50
70170;DHT22;57543;45.442;9.212;2022-08-25T08:39:57;29.49;46.51
70170;DHT22;57543;45.442;9.212;2022-08-25T08:43:11;29.42;46.50
70170;DHT22;57543;45.442;9.212;2022-08-25T08:46:21;29.58;46.10
70170;DHT22;57543;45.442;9.212;2022-08-25T08:53:04;30.01;45.62
70170;DHT22;57543;45.442;9.212;2022-08-25T08:56:15;30.29;45.94
70170;DHT22;57543;45.442;9.212;2022-08-25T08:59:24;30.55;45.70
70170;DHT22;57543;45.442;9.212;2022-08-25T09:02:34;30.61;46.09
70170;DHT22;57543;45.442;9.212;2022-08-25T09:05:46;30.13;47.39
70170;DHT22;57543;45.442;9.212;2022-08-25T09:08:51;30.34;46.62
70170;DHT22;57543;45.442;9.212;2022-08-25T09:12:30;30.66;45.48
70170;DHT22;57543;45.442;9.212;2022-08-25T09:16:02;31.00;44.31
70170;DHT22;57543;45.442;9.212;2022-08-25T09:23:38;30.78;43.38
70170;DHT22;57543;45.442;9.212;2022-08-25T09:30:19;30.52;45.02
70170;DHT22;57543;45.442;9.212;2022-08-25T09:33:24;30.55;44.29
70170;DHT22;57543;45.442;9.212;2022-08-25T09:36:29;30.82;43.82
70170;DHT22;57543;45.442;9.212;2022-08-25T09:39:33;30.69;44.37
70170;DHT22;57543;45.442;9.212;2022-08-25T09:42:54;31.27;43.65
70170;DHT22;57543;45.442;9.212;2022-08-25T09:49:11;31.83;42.72
70170;DHT22;57543;45.442;9.212;2022-08-25T09:55:30;32.23;42.63
70170;DHT22;57543;45.442;9.212;2022-08-25T09:58:34;32.76;41.32
70170;DHT22;57543;45.442;9.212;2022-08-25T10:01:56;32.80;39.08
70170;DHT22;57543;45.442;9.212;2022-08-25T10:08:33;32.80;39.84
70170;DHT22;57543;45.442;9.212;2022-08-25T10:11:43;33.10;38.99
70170;DHT22;57543;45.442;9.212;2022-08-25T10:14:47;33.10;38.29
70170;DHT22;57543;45.442;9.212;2022-08-25T10:17:50;33.03;38.52
70170;DHT22;57543;45.442;9.212;2022-08-25T10:21:13;33.33;38.87
70170;DHT22;57543;45.442;9.212;2022-08-25T10:24:17;33.44;38.17
70170;DHT22;57543;45.442;9.212;2022-08-25T10:31:12;33.55;38.47
70170;DHT22;57543;45.442;9.212;2022-08-25T10:37:59;33.58;38.74
70170;DHT22;57543;45.442;9.212;2022-08-25T10:44:52;34.03;38.02
70170;DHT22;57543;45.442;9.212;2022-08-25T10:48:38;34.33;38.39
70170;DHT22;57543;45.442;9.212;2022-08-25T10:52:15;34.65;37.27
70170;DHT22;57543;45.442;9.212;2022-08-25T10:55:36;34.33;35.50
70170;DHT22;57543;45.442;9.212;2022-08-25T10:59:26;34.65;35.13
70170;DHT22;57543;45.442;9.212;2022-08-25T11:06:04;34.70;35.98
70170;DHT22;57543;45.442;9.212;2022-08-25T11:09:13;34.30;36.79
70170;DHT22;57543;45.442;9.212;2022-08-25T11:12:33;34.47;36.33
70170;DHT22;57543;45.442;9.212;2022-08-25T11:15:50;34.70;35.82
70170;DHT22;57543;45.442;9.212;2022-08-25T11:19:06;34.77;35.62
70170;DHT22;57543;45.442;9.212;2022-08-25T11:22:43;35.13;35.22
70170;DHT22;57543;45.442;9.212;2022-08-25T11:25:53;35.40;34.41
70170;DHT22;57543;45.442;9.212;2022-08-25T11:29:15;35.70;34.54
70170;DHT22;57543;45.442;9.212;2022-08-25T11:32:20;36.41;33.08
70170;DHT22;57543;45.442;9.212;2022-08-25T11:35:35;36.51;32.39
70170;DHT22;57543;45.442;9.212;2022-08-25T11:46:06;37.22;31.15
70170;DHT22;57543;45.442;9.212;2022-08-25T11:49:41;37.60;29.92
70170;DHT22;57543;45.442;9.212;2022-08-25T11:52:51;38.55;29.19
70170;DHT22;57543;45.442;9.212;2022-08-25T11:56:02;38.56;29.20
70170;DHT22;57543;45.442;9.212;2022-08-25T11:59:08;38.71;29.27
70170;DHT22;57543;45.442;9.212;2022-08-25T12:02:42;37.98;30.06
70170;DHT22;57543;45.442;9.212;2022-08-25T12:05:49;37.61;30.53
70170;DHT22;57543;45.442;9.212;2022-08-25T12:18:39;36.56;31.80
70170;DHT22;57543;45.442;9.212;2022-08-25T12:21:44;35.94;32.45
70170;DHT22;57543;45.442;9.212;2022-08-25T12:24:54;35.47;32.67
70170;DHT22;57543;45.442;9.212;2022-08-25T12:28:44;35.55;32.23
70170;DHT22;57543;45.442;9.212;2022-08-25T12:38:32;34.95;32.19
70170;DHT22;57543;45.442;9.212;2022-08-25T12:41:51;35.20;31.83
70170;DHT22;57543;45.442;9.212;2022-08-25T12:48:56;35.13;33.32
70170;DHT22;57543;45.442;9.212;2022-08-25T12:52:14;35.37;32.95
70170;DHT22;57543;45.442;9.212;2022-08-25T12:55:21;35.54;32.80
70170;DHT22;57543;45.442;9.212;2022-08-25T12:58:33;35.41;31.94
70170;DHT22;57543;45.442;9.212;2022-08-25T13:05:25;35.02;32.53
70170;DHT22;57543;45.442;9.212;2022-08-25T13:09:09;34.72;32.55
70170;DHT22;57543;45.442;9.212;2022-08-25T13:12:20;34.92;32.65
70170;DHT22;57543;45.442;9.212;2022-08-25T13:18:37;35.25;31.87
70170;DHT22;57543;45.442;9.212;2022-08-25T13:21:42;34.96;32.13
70170;DHT22;57543;45.442;9.212;2022-08-25T13:24:46;35.09;31.82
70170;DHT22;57543;45.442;9.212;2022-08-25T13:27:59;35.40;31.71
70170;DHT22;57543;45.442;9.212;2022-08-25T13:31:13;35.61;30.59
70170;DHT22;57543;45.442;9.212;2022-08-25T13:34:20;35.84;30.48
70170;DHT22;57543;45.442;9.212;2022-08-25T13:37:25;35.84;30.20
70170;DHT22;57543;45.442;9.212;2022-08-25T13:40:31;35.51;29.45
70170;DHT22;57543;45.442;9.212;2022-08-25T13:43:38;35.23;29.85
70170;DHT22;57543;45.442;9.212;2022-08-25T13:46:42;34.96;31.34
70170;DHT22;57543;45.442;9.212;2022-08-25T13:49:47;35.29;31.71
70170;DHT22;57543;45.442;9.212;2022-08-25T13:53:13;35.54;30.96
70170;DHT22;57543;45.442;9.212;2022-08-25T13:56:38;35.43;31.25
70170;DHT22;57543;45.442;9.212;2022-08-25T13:59:43;35.36;30.82
70170;DHT22;57543;45.442;9.212;2022-08-25T14:02:52;35.15;30.98
70170;DHT22;57543;45.442;9.212;2022-08-25T14:09:17;35.51;31.51
70170;DHT22;57543;45.442;9.212;2022-08-25T14:15:29;35.82;29.51
70170;DHT22;57543;45.442;9.212;2022-08-25T14:18:34;35.98;29.47
70170;DHT22;57543;45.442;9.212;2022-08-25T14:21:39;36.02;30.14
70170;DHT22;57543;45.442;9.212;2022-08-25T14:24:42;35.94;29.80
70170;DHT22;57543;45.442;9.212;2022-08-25T14:28:03;35.98;30.21
70170;DHT22;57543;45.442;9.212;2022-08-25T14:31:11;35.47;28.99
70170;DHT22;57543;45.442;9.212;2022-08-25T14:34:19;35.71;29.73
70170;DHT22;57543;45.442;9.212;2022-08-25T14:37:23;35.96;29.66
70170;DHT22;57543;45.442;9.212;2022-08-25T14:40:28;36.09;28.63
70170;DHT22;57543;45.442;9.212;2022-08-25T14:43:32;36.13;27.90
70170;DHT22;57543;45.442;9.212;2022-08-25T14:46:55;35.98;28.60
70170;DHT22;57543;45.442;9.212;2022-08-25T14:49:59;36.02;29.64
70170;DHT22;57543;45.442;9.212;2022-08-25T14:53:03;35.10;31.22
70170;DHT22;57543;45.442;9.212;2022-08-25T14:56:08;35.06;32.38
70170;DHT22;57543;45.442;9.212;2022-08-25T14:59:11;35.51;30.13
70170;DHT22;57543;45.442;9.212;2022-08-25T15:02:17;35.68;29.02
70170;DHT22;57543;45.442;9.212;2022-08-25T15:05:24;35.58;29.82
70170;DHT22;57543;45.442;9.212;2022-08-25T15:08:29;35.89;28.93
70170;DHT22;57543;45.442;9.212;2022-08-25T15:11:54;35.92;29.06
70170;DHT22;57543;45.442;9.212;2022-08-25T15:14:58;35.86;29.23
70170;DHT22;57543;45.442;9.212;2022-08-25T15:18:02;35.75;29.15
70170;DHT22;57543;45.442;9.212;2022-08-25T15:21:06;35.33;28.95
70170;DHT22;57543;45.442;9.212;2022-08-25T15:24:12;35.30;29.39
70170;DHT22;57543;45.442;9.212;2022-08-25T15:27:19;35.34;29.73
70170;DHT22;57543;45.442;9.212;2022-08-25T15:30:23;34.72;30.70
70170;DHT22;57543;45.442;9.212;2022-08-25T15:33:27;34.79;31.28
70170;DHT22;57543;45.442;9.212;2022-08-25T15:36:31;34.78;31.26
70170;DHT22;57543;45.442;9.212;2022-08-25T15:39:36;34.87;30.96
70170;DHT22;57543;45.442;9.212;2022-08-25T15:42:41;34.53;30.86
70170;DHT22;57543;45.442;9.212;2022-08-25T15:45:44;34.65;30.01
70170;DHT22;57543;45.442;9.212;2022-08-25T15:48:48;35.16;29.34
70170;DHT22;57543;45.442;9.212;2022-08-25T15:51:53;35.60;28.46
70170;DHT22;57543;45.442;9.212;2022-08-25T15:54:58;35.49;29.25
70170;DHT22;57543;45.442;9.212;2022-08-25T15:58:01;35.09;29.70
70170;DHT22;57543;45.442;9.212;2022-08-25T16:01:05;34.87;30.04
70170;DHT22;57543;45.442;9.212;2022-08-25T16:04:10;34.87;29.97
70170;DHT22;57543;45.442;9.212;2022-08-25T16:07:13;34.65;30.97
70170;DHT22;57543;45.442;9.212;2022-08-25T16:10:18;34.55;31.00
70170;DHT22;57543;45.442;9.212;2022-08-25T16:13:21;34.60;30.51
70170;DHT22;57543;45.442;9.212;2022-08-25T16:16:27;34.34;32.01
70170;DHT22;57543;45.442;9.212;2022-08-25T16:19:32;34.74;30.48
70170;DHT22;57543;45.442;9.212;2022-08-25T16:22:35;34.51;30.85
70170;DHT22;57543;45.442;9.212;2022-08-25T16:25:41;35.03;29.36
70170;DHT22;57543;45.442;9.212;2022-08-25T16:28:45;35.13;29.51
70170;DHT22;57543;45.442;9.212;2022-08-25T16:31:49;35.03;29.90
70170;DHT22;57543;45.442;9.212;2022-08-25T16:34:53;34.58;30.40
70170;DHT22;57543;45.442;9.212;2022-08-25T16:37:56;34.28;30.79
70170;DHT22;57543;45.442;9.212;2022-08-25T16:41:04;33.93;31.14
70170;DHT22;57543;45.442;9.212;2022-08-25T16:44:08;33.85;31.03
70170;DHT22;57543;45.442;9.212;2022-08-25T16:47:12;33.81;30.97
70170;DHT22;57543;45.442;9.212;2022-08-25T16:50:16;33.79;31.03
70170;DHT22;57543;45.442;9.212;2022-08-25T16:53:20;33.69;31.41
70170;DHT22;57543;45.442;9.212;2022-08-25T16:56:42;33.43;31.80
70170;DHT22;57543;45.442;9.212;2022-08-25T16:59:46;33.02;32.53
70170;DHT22;57543;45.442;9.212;2022-08-25T17:02:58;32.42;33.78
70170;DHT22;57543;45.442;9.212;2022-08-25T17:06:03;31.97;35.02
70170;DHT22;57543;45.442;9.212;2022-08-25T17:09:09;31.83;35.35
70170;DHT22;57543;45.442;9.212;2022-08-25T17:12:13;31.89;35.03
70170;DHT22;57543;45.442;9.212;2022-08-25T17:15:17;32.06;34.76
70170;DHT22;57543;45.442;9.212;2022-08-25T17:18:27;32.05;34.99
70170;DHT22;57543;45.442;9.212;2022-08-25T17:21:34;32.00;35.17
70170;DHT22;57543;45.442;9.212;2022-08-25T17:24:39;31.69;35.23
70170;DHT22;57543;45.442;9.212;2022-08-25T17:27:43;31.57;35.72
70170;DHT22;57543;45.442;9.212;2022-08-25T17:30:48;31.49;35.12
70170;DHT22;57543;45.442;9.212;2022-08-25T17:33:51;31.27;35.44
70170;DHT22;57543;45.442;9.212;2022-08-25T17:36:56;31.16;35.66
70170;DHT22;57543;45.442;9.212;2022-08-25T17:40:02;31.23;35.41
70170;DHT22;57543;45.442;9.212;2022-08-25T17:43:06;31.13;35.68
70170;DHT22;57543;45.442;9.212;2022-08-25T17:46:11;31.11;35.86
70170;DHT22;57543;45.442;9.212;2022-08-25T17:49:16;31.01;36.11
70170;DHT22;57543;45.442;9.212;2022-08-25T17:52:19;31.10;36.21
70170;DHT22;57543;45.442;9.212;2022-08-25T17:55:23;30.90;36.62
70170;DHT22;57543;45.442;9.212;2022-08-25T17:58:28;30.94;36.63
70170;DHT22;57543;45.442;9.212;2022-08-25T18:01:34;30.90;36.82
70170;DHT22;57543;45.442;9.212;2022-08-25T18:04:39;30.94;36.78
70170;DHT22;57543;45.442;9.212;2022-08-25T18:07:42;30.87;36.72
70170;DHT22;57543;45.442;9.212;2022-08-25T18:10:46;30.90;36.74
70170;DHT22;57543;45.442;9.212;2022-08-25T18:13:50;30.84;36.90
70170;DHT22;57543;45.442;9.212;2022-08-25T18:16:56;30.82;36.84
70170;DHT22;57543;45.442;9.212;2022-08-25T18:20:01;30.83;36.97
70170;DHT22;57543;45.442;9.212;2022-08-25T18:23:07;30.84;37.13
70170;DHT22;57543;45.442;9.212;2022-08-25T18:26:14;30.97;37.81
70170;DHT22;57543;45.442;9.212;2022-08-25T18:29:18;30.90;37.76
70170;DHT22;57543;45.442;9.212;2022-08-25T18:32:22;30.75;37.61
70170;DHT22;57543;45.442;9.212;2022-08-25T18:35:27;30.66;37.93
70170;DHT22;57543;45.442;9.212;2022-08-25T18:38:31;30.73;38.53
70170;DHT22;57543;45.442;9.212;2022-08-25T18:41:53;30.73;38.75
70170;DHT22;57543;45.442;9.212;2022-08-25T18:44:57;30.65;38.98
70170;DHT22;57543;45.442;9.212;2022-08-25T18:48:01;30.61;39.27
70170;DHT22;57543;45.442;9.212;2022-08-25T18:51:05;30.63;39.43
70170;DHT22;57543;45.442;9.212;2022-08-25T18:54:10;30.62;39.95
70170;DHT22;57543;45.442;9.212;2022-08-25T18:57:14;30.59;40.11
70170;DHT22;57543;45.442;9.212;2022-08-25T19:00:22;30.55;40.19
70170;DHT22;57543;45.442;9.212;2022-08-25T19:03:26;30.55;40.35
70170;DHT22;57543;45.442;9.212;2022-08-25T19:06:30;30.55;40.49
70170;DHT22;57543;45.442;9.212;2022-08-25T19:09:33;30.51;40.53
70170;DHT22;57543;45.442;9.212;2022-08-25T19:12:38;30.48;40.54
70170;DHT22;57543;45.442;9.212;2022-08-25T19:15:43;30.48;40.75
70170;DHT22;57543;45.442;9.212;2022-08-25T19:18:47;30.42;40.99
70170;DHT22;57543;45.442;9.212;2022-08-25T19:21:51;30.38;41.22
70170;DHT22;57543;45.442;9.212;2022-08-25T19:24:54;30.34;41.34
70170;DHT22;57543;45.442;9.212;2022-08-25T19:28:02;30.32;41.50
70170;DHT22;57543;45.442;9.212;2022-08-25T19:31:06;30.29;41.62
70170;DHT22;57543;45.442;9.212;2022-08-25T19:34:14;30.25;41.79
70170;DHT22;57543;45.442;9.212;2022-08-25T19:37:24;30.20;42.10
70170;DHT22;57543;45.442;9.212;2022-08-25T19:40:28;30.14;42.21
70170;DHT22;57543;45.442;9.212;2022-08-25T19:43:35;30.11;42.41
70170;DHT22;57543;45.442;9.212;2022-08-25T19:46:41;30.10;42.52
70170;DHT22;57543;45.442;9.212;2022-08-25T19:49:45;30.04;43.22
70170;DHT22;57543;45.442;9.212;2022-08-25T19:52:50;29.97;43.38
70170;DHT22;57543;45.442;9.212;2022-08-25T19:55:53;29.93;42.94
70170;DHT22;57543;45.442;9.212;2022-08-25T19:58:58;29.93;43.20
70170;DHT22;57543;45.442;9.212;2022-08-25T20:02:03;29.86;43.54
70170;DHT22;57543;45.442;9.212;2022-08-25T20:05:08;29.82;43.82
70170;DHT22;57543;45.442;9.212;2022-08-25T20:08:13;29.79;44.00
70170;DHT22;57543;45.442;9.212;2022-08-25T20:11:16;29.72;44.13
70170;DHT22;57543;45.442;9.212;2022-08-25T20:14:20;29.69;43.72
70170;DHT22;57543;45.442;9.212;2022-08-25T20:17:25;29.70;43.84
70170;DHT22;57543;45.442;9.212;2022-08-25T20:20:29;29.30;44.19
70170;DHT22;57543;45.442;9.212;2022-08-25T20:23:32;28.94;44.46
70170;DHT22;57543;45.442;9.212;2022-08-25T20:26:54;28.99;44.42
70170;DHT22;57543;45.442;9.212;2022-08-25T20:29:59;29.07;44.37
70170;DHT22;57543;45.442;9.212;2022-08-25T20:33:04;29.15;44.25
70170;DHT22;57543;45.442;9.212;2022-08-25T20:36:08;29.25;44.10
70170;DHT22;57543;45.442;9.212;2022-08-25T20:39:12;29.27;43.79
70170;DHT22;57543;45.442;9.212;2022-08-25T20:42:15;29.32;43.39
70170;DHT22;57543;45.442;9.212;2022-08-25T20:45:20;29.39;43.90
70170;DHT22;57543;45.442;9.212;2022-08-25T20:48:24;29.42;43.38
70170;DHT22;57543;45.442;9.212;2022-08-25T20:51:28;29.42;44.94
70170;DHT22;57543;45.442;9.212;2022-08-25T20:54:32;29.39;44.19
70170;DHT22;57543;45.442;9.212;2022-08-25T20:57:36;29.41;44.35
70170;DHT22;57543;45.442;9.212;2022-08-25T21:00:42;29.37;44.76